createdAt,value
2022-12-18T00:02:59.107Z,32.70
2022-12-18T00:06:04.034Z,31.43
2022-12-18T00:09:06.156Z,38.10
2022-12-18T00:15:21.125Z,40.35
2022-12-18T00:18:23.415Z,27.10
2022-12-18T00:21:25.987Z,31.37
2022-12-18T00:24:30.197Z,41.92
2022-12-18T00:27:32.299Z,29.02
2022-12-18T00:30:34.265Z,39.25
2022-12-18T00:33:37.620Z,37.97
2022-12-18T00:36:44.644Z,37.43
2022-12-18T00:39:47.150Z,36.00
2022-12-18T00:42:57.723Z,31.80
2022-12-18T00:45:59.652Z,34.63
2022-12-18T00:49:02.111Z,26.43
2022-12-18T00:52:03.980Z,27.43
2022-12-18T00:55:06.771Z,31.15
2022-12-18T00:58:11.556Z,39.25
2022-12-18T01:01:13.608Z,36.80
2022-12-18T01:04:16.310Z,35.27
2022-12-18T01:07:18.255Z,30.23
2022-12-18T01:10:21.238Z,35.45
2022-12-18T01:13:26.212Z,39.88
2022-12-18T01:16:28.501Z,34.78
2022-12-18T01:19:31.171Z,33.73
2022-12-18T01:22:34.453Z,37.93
2022-12-18T01:25:39.879Z,37.58
2022-12-18T01:28:44.965Z,31.48
2022-12-18T01:31:48.075Z,36.13
2022-12-18T01:34:50.008Z,31.77
2022-12-18T01:37:56.271Z,37.20
2022-12-18T01:41:00.168Z,32.28
2022-12-18T01:44:02.101Z,41.17
2022-12-18T01:47:04.321Z,38.17
2022-12-18T01:50:12.088Z,35.07
2022-12-18T01:53:20.236Z,33.73
2022-12-18T01:56:23.201Z,37.15
2022-12-18T01:59:25.347Z,36.42
2022-12-18T02:02:30.107Z,34.35
2022-12-18T02:05:47.502Z,34.17
2022-12-18T02:09:03.403Z,35.90
2022-12-18T02:12:19.932Z,35.45
2022-12-18T02:15:40.252Z,31.23
2022-12-18T02:18:49.132Z,33.78
2022-12-18T02:21:58.306Z,36.43
2022-12-18T02:25:37.425Z,32.37
2022-12-18T02:28:45.178Z,33.58
2022-12-18T02:31:53.581Z,30.02
2022-12-18T02:34:58.510Z,30.73
2022-12-18T02:38:01.979Z,29.63
2022-12-18T02:41:07.215Z,32.93
2022-12-18T02:44:14.467Z,35.90
2022-12-18T02:47:21.538Z,39.55
2022-12-18T02:50:39.352Z,36.88
2022-12-18T02:53:50.915Z,39.40
2022-12-18T02:56:59.412Z,35.80
2022-12-18T03:00:21.624Z,33.38
2022-12-18T03:03:31.187Z,28.15
2022-12-18T03:06:48.553Z,35.60
2022-12-18T03:09:54.592Z,36.17
2022-12-18T03:13:09.993Z,35.73
2022-12-18T03:16:16.941Z,32.30
2022-12-18T03:19:23.396Z,37.15
2022-12-18T03:22:31.352Z,32.10
2022-12-18T03:25:37.091Z,34.23
2022-12-18T03:28:55.682Z,38.10
2022-12-18T03:32:05.608Z,36.42
2022-12-18T03:35:10.636Z,35.92
2022-12-18T03:38:13.335Z,36.90
2022-12-18T03:41:34.837Z,33.40
2022-12-18T03:45:15.059Z,42.53
2022-12-18T03:48:41.764Z,35.35
2022-12-18T03:51:49.032Z,35.60
2022-12-18T03:54:52.691Z,33.72
2022-12-18T03:57:55.489Z,38.77
2022-12-18T04:01:02.521Z,34.93
2022-12-18T04:04:06.039Z,36.95
2022-12-18T04:07:08.876Z,37.92
2022-12-18T04:10:11.944Z,40.88
2022-12-18T04:13:13.904Z,37.33
2022-12-18T04:16:16.171Z,38.77
2022-12-18T04:19:18.056Z,38.50
2022-12-18T04:22:20.304Z,39.20
2022-12-18T04:25:22.545Z,35.80
2022-12-18T04:28:24.665Z,36.20
2022-12-18T04:31:27.333Z,32.13
2022-12-18T04:34:29.302Z,37.13
2022-12-18T04:37:32.812Z,42.78
2022-12-18T04:40:35.272Z,37.38
2022-12-18T04:43:37.500Z,38.80
2022-12-18T04:46:39.692Z,41.40
2022-12-18T04:49:41.743Z,34.80
2022-12-18T04:52:44.327Z,38.03
2022-12-18T04:55:48.982Z,42.05
2022-12-18T04:58:52.175Z,36.03
2022-12-18T05:01:55.323Z,40.43
2022-12-18T05:04:58.208Z,37.05
2022-12-18T05:08:01.509Z,38.90
2022-12-18T05:11:10.003Z,44.35
2022-12-18T05:14:12.491Z,40.23
2022-12-18T05:17:14.349Z,42.13
2022-12-18T05:20:19.453Z,36.92
2022-12-18T05:23:22.563Z,38.42
2022-12-18T05:26:25.930Z,40.03
2022-12-18T05:29:27.962Z,27.43
2022-12-18T05:32:30.236Z,37.33
2022-12-18T05:35:32.361Z,35.63
2022-12-18T05:38:36.319Z,36.53
2022-12-18T05:41:40.119Z,36.25
2022-12-18T05:44:42.167Z,35.70
2022-12-18T05:47:44.369Z,28.50
2022-12-18T05:50:49.638Z,40.30
2022-12-18T05:53:51.590Z,38.65
2022-12-18T05:56:53.473Z,43.50
2022-12-18T05:59:55.658Z,38.27
2022-12-18T06:03:00.109Z,34.97
2022-12-18T06:06:02.943Z,43.50
2022-12-18T06:09:10.471Z,34.63
2022-12-18T06:12:12.456Z,35.00
2022-12-18T06:15:16.185Z,32.13
2022-12-18T06:18:19.000Z,36.40
2022-12-18T06:21:22.140Z,38.97
2022-12-18T06:24:24.315Z,40.10
2022-12-18T06:27:26.281Z,36.72
2022-12-18T06:30:28.331Z,36.23
2022-12-18T06:33:31.459Z,39.30
2022-12-18T06:36:33.410Z,44.42
2022-12-18T06:39:35.347Z,47.78
2022-12-18T06:42:37.739Z,47.88
2022-12-18T06:45:40.158Z,46.10
2022-12-18T06:48:42.530Z,59.97
2022-12-18T06:51:44.373Z,46.53
2022-12-18T06:54:46.242Z,44.53
2022-12-18T06:57:48.270Z,40.17
2022-12-18T07:00:50.216Z,35.83
2022-12-18T07:03:56.567Z,37.10
2022-12-18T07:06:58.738Z,41.35
2022-12-18T07:10:01.856Z,37.88
2022-12-18T07:13:03.905Z,43.10
2022-12-18T07:16:24.243Z,46.90
2022-12-18T07:19:27.357Z,44.73
2022-12-18T07:22:29.379Z,44.65
2022-12-18T07:25:38.866Z,51.95
2022-12-18T07:28:42.045Z,43.13
2022-12-18T07:31:44.161Z,43.77
2022-12-18T07:34:47.102Z,47.77
2022-12-18T07:37:49.182Z,37.70
2022-12-18T07:40:51.843Z,55.22
2022-12-18T07:43:53.865Z,41.80
2022-12-18T07:46:55.711Z,49.70
2022-12-18T07:49:57.898Z,41.53
2022-12-18T07:53:04.664Z,46.17
2022-12-18T07:56:29.145Z,40.53
2022-12-18T07:59:32.850Z,43.45
2022-12-18T08:02:35.158Z,37.27
2022-12-18T08:05:38.628Z,45.90
2022-12-18T08:08:42.419Z,42.75
2022-12-18T08:11:45.564Z,47.38
2022-12-18T08:14:47.555Z,45.03
2022-12-18T08:17:49.874Z,41.90
2022-12-18T08:20:53.688Z,49.53
2022-12-18T08:23:58.063Z,39.05
2022-12-18T08:27:27.981Z,46.72
2022-12-18T08:30:23.696Z,43.22
2022-12-18T08:33:26.041Z,42.73
2022-12-18T08:36:28.681Z,43.97
2022-12-18T08:39:31.589Z,45.53
2022-12-18T08:43:05.929Z,38.47
2022-12-18T08:46:08.201Z,34.15
2022-12-18T08:49:12.386Z,41.63
2022-12-18T08:52:14.586Z,43.97
2022-12-18T08:55:16.827Z,55.25
2022-12-18T08:58:21.872Z,54.30
2022-12-18T09:01:24.476Z,53.83
2022-12-18T09:04:26.479Z,49.17
2022-12-18T09:07:28.477Z,50.73
2022-12-18T09:10:33.194Z,44.60
2022-12-18T09:13:35.852Z,48.13
2022-12-18T09:16:38.119Z,42.53
2022-12-18T09:19:40.136Z,49.80
2022-12-18T09:22:41.964Z,43.77
2022-12-18T09:25:43.857Z,44.75
2022-12-18T09:28:45.812Z,48.50
2022-12-18T09:31:49.164Z,45.97
2022-12-18T09:34:51.196Z,46.57
2022-12-18T09:37:56.216Z,49.10
2022-12-18T09:41:07.009Z,53.72
2022-12-18T09:44:26.125Z,43.40
2022-12-18T09:47:40.381Z,49.13
2022-12-18T09:50:43.961Z,44.77
2022-12-18T09:53:52.770Z,42.53
2022-12-18T09:56:54.829Z,51.15
2022-12-18T10:00:05.820Z,46.35
2022-12-18T10:03:14.096Z,48.25
2022-12-18T10:06:40.525Z,38.93
2022-12-18T10:09:55.006Z,41.97
2022-12-18T10:13:06.027Z,50.38
2022-12-18T10:16:39.038Z,47.13
2022-12-18T10:19:51.143Z,37.17
2022-12-18T10:23:21.196Z,46.80
2022-12-18T10:26:23.449Z,50.67
2022-12-18T10:29:26.435Z,43.85
2022-12-18T10:32:31.437Z,49.25
2022-12-18T10:35:33.400Z,46.67
2022-12-18T10:38:35.537Z,49.20
2022-12-18T10:41:37.652Z,46.23
2022-12-18T10:44:39.468Z,46.33
2022-12-18T10:47:50.045Z,44.42
2022-12-18T10:54:18.949Z,45.97
2022-12-18T10:57:42.623Z,50.40
2022-12-18T11:00:44.967Z,40.30
2022-12-18T11:04:01.749Z,47.50
2022-12-18T11:07:10.201Z,43.40
2022-12-18T11:10:19.011Z,52.70
2022-12-18T11:13:24.172Z,46.90
2022-12-18T11:16:28.917Z,48.45
2022-12-18T11:19:42.521Z,45.38
2022-12-18T11:22:44.554Z,37.15
2022-12-18T11:25:55.201Z,43.77
2022-12-18T11:29:16.804Z,45.43
2022-12-18T11:32:36.258Z,38.95
2022-12-18T11:35:53.034Z,46.45
2022-12-18T11:38:58.358Z,49.15
2022-12-18T11:42:15.895Z,45.17
2022-12-18T11:45:43.531Z,48.43
2022-12-18T11:48:53.352Z,44.40
2022-12-18T11:52:18.313Z,43.75
2022-12-18T11:55:32.449Z,50.50
2022-12-18T11:58:53.844Z,38.50
2022-12-18T12:02:30.844Z,38.10
2022-12-18T12:05:43.982Z,46.03
2022-12-18T12:09:20.131Z,41.55
2022-12-18T12:12:52.232Z,42.13
2022-12-18T12:16:03.445Z,33.03
2022-12-18T12:19:23.978Z,38.23
2022-12-18T12:22:38.500Z,32.80
2022-12-18T12:25:49.629Z,35.33
2022-12-18T12:28:58.638Z,29.83
2022-12-18T12:32:08.825Z,27.50
2022-12-18T12:35:20.391Z,37.77
2022-12-18T12:38:29.910Z,34.38
2022-12-18T12:41:53.456Z,32.22
2022-12-18T12:44:59.802Z,37.75
2022-12-18T12:48:06.821Z,31.97
2022-12-18T12:51:31.487Z,31.53
2022-12-18T12:54:36.150Z,39.08
2022-12-18T12:57:42.754Z,36.95
2022-12-18T13:01:04.468Z,38.25
2022-12-18T13:04:32.652Z,36.83
2022-12-18T13:07:47.188Z,41.93
2022-12-18T13:10:49.496Z,42.70
2022-12-18T13:13:57.025Z,40.65
2022-12-18T13:17:30.846Z,46.22
2022-12-18T13:21:04.091Z,45.10
2022-12-18T13:24:22.993Z,37.33
2022-12-18T13:27:54.921Z,43.97
2022-12-18T13:30:58.877Z,52.75
2022-12-18T13:34:28.420Z,50.92
2022-12-18T13:37:34.025Z,52.20
2022-12-18T13:40:48.575Z,45.47
2022-12-18T13:43:52.764Z,53.55
2022-12-18T13:46:55.446Z,49.53
2022-12-18T13:49:58.225Z,57.60
2022-12-18T13:53:03.231Z,58.23
2022-12-18T13:56:06.350Z,53.57
2022-12-18T13:59:25.035Z,62.63
2022-12-18T14:02:29.480Z,58.80
2022-12-18T14:05:36.442Z,52.60
2022-12-18T14:08:43.254Z,50.03
2022-12-18T14:11:51.257Z,54.73
2022-12-18T14:14:55.042Z,53.33
2022-12-18T14:18:01.396Z,47.28
2022-12-18T14:21:06.003Z,42.53
2022-12-18T14:24:20.242Z,51.97
2022-12-18T14:27:26.868Z,46.63
2022-12-18T14:30:33.063Z,42.72
2022-12-18T14:33:35.021Z,37.83
2022-12-18T14:36:37.272Z,40.15
2022-12-18T14:39:39.905Z,39.23
2022-12-18T14:42:43.278Z,44.70
2022-12-18T14:45:47.585Z,47.95
2022-12-18T14:48:49.850Z,49.35
2022-12-18T14:51:59.158Z,51.05
2022-12-18T14:55:01.212Z,50.87
2022-12-18T14:58:03.512Z,45.50
2022-12-18T15:01:05.645Z,56.30
2022-12-18T15:04:26.269Z,53.97
2022-12-18T15:07:40.605Z,66.90
2022-12-18T15:10:48.957Z,51.27
2022-12-18T15:13:53.362Z,49.40
2022-12-18T15:16:57.577Z,52.67
2022-12-18T15:20:10.093Z,55.50
2022-12-18T15:23:27.189Z,59.88
2022-12-18T15:26:38.549Z,58.90
2022-12-18T15:29:40.805Z,52.87
2022-12-18T15:32:43.241Z,53.88
2022-12-18T15:35:47.301Z,53.45
2022-12-18T15:38:58.889Z,53.50
2022-12-18T15:42:28.690Z,59.10
2022-12-18T15:45:31.127Z,45.37
2022-12-18T15:48:36.503Z,53.90
2022-12-18T15:51:39.476Z,54.80
2022-12-18T15:55:00.867Z,61.05
2022-12-18T15:58:02.669Z,56.87
2022-12-18T16:01:05.271Z,58.63
2022-12-18T16:04:08.090Z,63.90
2022-12-18T16:07:15.123Z,59.67
2022-12-18T16:10:20.856Z,55.85
2022-12-18T16:13:24.105Z,57.77
2022-12-18T16:16:26.374Z,54.50
2022-12-18T16:19:31.050Z,55.17
2022-12-18T16:22:33.405Z,54.47
2022-12-18T16:25:35.277Z,55.90
2022-12-18T16:28:37.815Z,55.17
2022-12-18T16:31:40.479Z,50.90
2022-12-18T16:34:43.408Z,54.28
2022-12-18T16:37:45.605Z,59.50
2022-12-18T16:41:07.560Z,55.17
2022-12-18T16:44:10.077Z,60.20
2022-12-18T16:47:14.879Z,53.40
2022-12-18T16:50:17.769Z,62.00
2022-12-18T16:53:19.913Z,64.55
2022-12-18T16:56:22.523Z,61.10
2022-12-18T16:59:26.859Z,58.47
2022-12-18T17:02:29.459Z,61.53
2022-12-18T17:05:34.108Z,52.72
2022-12-18T17:08:36.765Z,58.95
2022-12-18T17:11:39.111Z,62.42
2022-12-18T17:14:41.587Z,59.93
2022-12-18T17:17:44.557Z,67.30
2022-12-18T17:20:47.032Z,66.47
2022-12-18T17:23:53.345Z,61.53
2022-12-18T17:26:55.289Z,63.35
2022-12-18T17:29:57.467Z,63.73
2022-12-18T17:32:59.934Z,62.53
2022-12-18T17:36:04.442Z,70.10
2022-12-18T17:39:07.666Z,69.10
2022-12-18T17:42:10.899Z,71.57
2022-12-18T17:45:17.423Z,72.93
2022-12-18T17:48:19.915Z,76.57
2022-12-18T17:51:22.306Z,69.43
2022-12-18T17:54:24.398Z,72.88
2022-12-18T17:57:26.657Z,76.85
2022-12-18T18:03:33.828Z,73.70
2022-12-18T18:06:39.011Z,76.18
2022-12-18T18:09:42.875Z,75.07
2022-12-18T18:13:03.516Z,80.32
2022-12-18T18:16:08.116Z,80.27
2022-12-18T18:19:13.249Z,73.97
2022-12-18T18:22:15.739Z,87.53
2022-12-18T18:25:18.237Z,78.78
2022-12-18T18:28:21.379Z,93.82
2022-12-18T18:31:24.689Z,79.13
2022-12-18T18:34:30.420Z,87.60
2022-12-18T18:37:33.061Z,90.55
2022-12-18T18:40:37.344Z,92.25
2022-12-18T18:43:39.985Z,87.68
2022-12-18T18:46:42.786Z,90.13
2022-12-18T18:49:45.039Z,96.03
2022-12-18T18:52:47.994Z,98.40
2022-12-18T18:56:17.283Z,108.25
2022-12-18T18:59:12.731Z,101.85
2022-12-18T19:02:18.204Z,101.23
2022-12-18T19:05:22.314Z,103.20
2022-12-18T19:08:24.600Z,97.82
2022-12-18T19:11:45.801Z,101.03
2022-12-18T19:14:48.233Z,100.70
2022-12-18T19:17:50.391Z,108.03
2022-12-18T19:21:02.840Z,102.77
2022-12-18T19:24:06.286Z,102.80
2022-12-18T19:27:08.369Z,102.97
2022-12-18T19:30:10.940Z,100.75
2022-12-18T19:33:41.977Z,96.83
2022-12-18T19:36:39.280Z,87.43
2022-12-18T19:39:41.462Z,86.10
2022-12-18T19:42:43.896Z,94.57
2022-12-18T19:45:55.088Z,81.60
2022-12-18T19:48:59.843Z,75.10
2022-12-18T19:52:03.182Z,78.80
2022-12-18T19:55:05.868Z,67.43
2022-12-18T19:58:11.207Z,74.97
2022-12-18T20:01:16.428Z,66.90
2022-12-18T20:04:19.184Z,68.60
2022-12-18T20:07:21.588Z,65.87
2022-12-18T20:10:24.846Z,53.05
2022-12-18T20:13:26.886Z,74.35
2022-12-18T20:16:30.226Z,73.88
2022-12-18T20:19:34.160Z,72.43
2022-12-18T20:22:37.461Z,74.70
2022-12-18T20:25:41.512Z,76.35
2022-12-18T20:28:43.561Z,71.00
2022-12-18T20:31:45.927Z,69.43
2022-12-18T20:34:47.890Z,73.37
2022-12-18T20:37:50.938Z,72.57
2022-12-18T20:40:56.500Z,75.40
2022-12-18T20:43:59.134Z,75.80
2022-12-18T20:47:08.457Z,71.53
2022-12-18T20:50:11.693Z,77.27
2022-12-18T20:53:13.681Z,78.37
2022-12-18T20:56:21.569Z,65.30
2022-12-18T20:59:25.871Z,84.05
2022-12-18T21:02:28.462Z,77.63
2022-12-18T21:05:31.414Z,72.73
2022-12-18T21:08:35.298Z,78.20
2022-12-18T21:11:55.980Z,77.97
2022-12-18T21:14:59.792Z,74.38
2022-12-18T21:18:01.882Z,75.18
2022-12-18T21:21:03.796Z,77.83
2022-12-18T21:24:07.686Z,83.73
2022-12-18T21:27:10.601Z,90.13
2022-12-18T21:30:17.223Z,83.75
2022-12-18T21:33:19.131Z,79.22
2022-12-18T21:36:21.185Z,81.90
2022-12-18T21:39:23.952Z,72.87
2022-12-18T21:42:44.976Z,75.72
2022-12-18T21:45:47.072Z,75.13
2022-12-18T21:48:49.285Z,77.07
2022-12-18T21:51:57.117Z,71.30
2022-12-18T21:55:06.256Z,82.70
2022-12-18T21:58:10.995Z,68.25
2022-12-18T22:01:13.131Z,74.03
2022-12-18T22:04:16.026Z,65.80
2022-12-18T22:07:18.456Z,78.20
2022-12-18T22:10:21.017Z,62.50
2022-12-18T22:13:22.885Z,54.75
2022-12-18T22:16:25.010Z,46.67
2022-12-18T22:19:27.092Z,79.32
2022-12-18T22:22:29.258Z,71.10
2022-12-18T22:25:31.369Z,78.90
2022-12-18T22:28:54.404Z,72.95
2022-12-18T22:31:56.268Z,63.88
2022-12-18T22:35:05.248Z,63.53
2022-12-18T22:38:08.654Z,72.97
2022-12-18T22:41:10.901Z,84.33
2022-12-18T22:44:15.695Z,79.38
2022-12-18T22:47:21.908Z,70.53
2022-12-18T22:50:27.088Z,37.58
2022-12-18T22:53:30.503Z,88.57
2022-12-18T22:56:32.332Z,76.60
2022-12-18T22:59:34.897Z,73.18
2022-12-18T23:02:37.144Z,67.80
2022-12-18T23:05:39.238Z,77.30
2022-12-18T23:08:41.759Z,73.80
2022-12-18T23:11:44.876Z,75.90
2022-12-18T23:14:47.406Z,76.15
2022-12-18T23:17:49.484Z,80.97
2022-12-18T23:20:51.702Z,77.95
2022-12-18T23:23:57.311Z,79.80
2022-12-18T23:26:59.321Z,57.47
2022-12-18T23:30:01.345Z,72.72
2022-12-18T23:33:04.839Z,60.72
2022-12-18T23:36:07.505Z,41.95
2022-12-18T23:39:11.485Z,62.57
2022-12-18T23:42:14.864Z,68.90
2022-12-18T23:45:17.953Z,60.45
2022-12-18T23:48:21.339Z,68.18
2022-12-18T23:51:25.714Z,73.03
2022-12-18T23:54:33.402Z,74.70
2022-12-18T23:57:35.774Z,76.40
